createdAt,value
2022-10-13T00:01:11.711Z,7.13
2022-10-13T00:03:39.787Z,8.65
2022-10-13T00:06:08.834Z,8.80
2022-10-13T00:08:36.102Z,7.47
2022-10-13T00:11:15.855Z,7.10
2022-10-13T00:13:43.450Z,10.98
2022-10-13T00:16:10.517Z,7.22
2022-10-13T00:18:37.494Z,10.95
2022-10-13T00:21:08.897Z,8.25
2022-10-13T00:23:35.778Z,7.35
2022-10-13T00:26:07.039Z,9.68
2022-10-13T00:28:33.971Z,6.47
2022-10-13T00:31:00.892Z,7.28
2022-10-13T00:33:27.913Z,5.20
2022-10-13T00:35:54.783Z,5.10
2022-10-13T00:38:22.115Z,4.90
2022-10-13T00:40:50.969Z,4.65
2022-10-13T00:43:42.099Z,4.38
2022-10-13T00:46:10.457Z,5.50
2022-10-13T00:48:37.583Z,5.90
2022-10-13T00:51:04.638Z,4.35
2022-10-13T00:53:33.329Z,6.80
2022-10-13T00:56:00.167Z,6.60
2022-10-13T00:58:31.372Z,5.70
2022-10-13T01:00:58.452Z,7.13
2022-10-13T01:03:25.551Z,5.25
2022-10-13T01:05:54.179Z,6.45
2022-10-13T01:08:21.520Z,7.60
2022-10-13T01:11:07.318Z,4.40
2022-10-13T01:13:56.926Z,6.93
2022-10-13T01:16:26.552Z,4.00
2022-10-13T01:18:58.635Z,5.30
2022-10-13T01:21:33.666Z,4.80
2022-10-13T01:24:21.398Z,5.30
2022-10-13T01:26:59.940Z,4.75
2022-10-13T01:29:32.779Z,6.03
2022-10-13T01:32:06.387Z,5.72
2022-10-13T01:34:42.019Z,5.43
2022-10-13T01:37:20.595Z,3.88
2022-10-13T01:40:09.029Z,5.88
2022-10-13T01:42:45.846Z,4.65
2022-10-13T01:45:15.338Z,4.68
2022-10-13T01:47:42.178Z,4.35
2022-10-13T01:50:09.146Z,4.45
2022-10-13T01:52:38.216Z,6.60
2022-10-13T01:55:07.095Z,5.45
2022-10-13T01:57:39.647Z,3.05
2022-10-13T02:00:17.634Z,4.10
2022-10-13T02:02:54.210Z,3.05
2022-10-13T02:05:33.173Z,4.63
2022-10-13T02:08:20.285Z,5.50
2022-10-13T02:10:58.462Z,6.32
2022-10-13T02:13:26.907Z,5.78
2022-10-13T02:15:55.548Z,5.55
2022-10-13T02:18:25.726Z,4.70
2022-10-13T02:20:52.745Z,3.22
2022-10-13T02:23:19.627Z,4.20
2022-10-13T02:25:46.538Z,3.60
2022-10-13T02:28:13.757Z,4.35
2022-10-13T02:30:44.139Z,4.93
2022-10-13T02:33:11.336Z,2.72
2022-10-13T02:35:38.982Z,4.10
2022-10-13T02:38:05.838Z,4.28
2022-10-13T02:40:32.766Z,3.28
2022-10-13T02:42:59.662Z,6.25
2022-10-13T02:45:26.633Z,4.03
2022-10-13T02:47:55.139Z,4.10
2022-10-13T02:50:22.054Z,4.32
2022-10-13T02:52:50.521Z,5.63
2022-10-13T02:55:17.387Z,4.97
2022-10-13T02:57:45.889Z,3.83
2022-10-13T03:00:15.930Z,3.83
2022-10-13T03:02:42.978Z,3.97
2022-10-13T03:05:09.938Z,3.25
2022-10-13T03:07:36.861Z,3.92
2022-10-13T03:10:04.129Z,3.67
2022-10-13T03:12:31.154Z,3.75
2022-10-13T03:14:58.027Z,2.60
2022-10-13T03:17:24.899Z,4.68
2022-10-13T03:19:51.863Z,4.22
2022-10-13T03:22:19.127Z,3.15
2022-10-13T03:24:46.253Z,2.70
2022-10-13T03:27:13.158Z,4.15
2022-10-13T03:29:40.048Z,3.63
2022-10-13T03:32:06.939Z,3.10
2022-10-13T03:34:33.887Z,6.63
2022-10-13T03:37:00.718Z,4.05
2022-10-13T03:39:33.243Z,6.45
2022-10-13T03:42:00.090Z,4.38
2022-10-13T03:44:26.944Z,4.38
2022-10-13T03:46:53.800Z,4.78
2022-10-13T03:49:20.637Z,3.35
2022-10-13T03:51:47.569Z,4.05
2022-10-13T03:54:14.625Z,4.88
2022-10-13T03:56:43.358Z,5.03
2022-10-13T03:59:11.796Z,3.75
2022-10-13T04:01:38.834Z,4.97
2022-10-13T04:04:07.522Z,3.70
2022-10-13T04:06:34.551Z,3.65
2022-10-13T04:09:01.409Z,6.43
2022-10-13T04:11:28.283Z,6.03
2022-10-13T04:13:56.391Z,5.22
2022-10-13T04:16:24.730Z,3.25
2022-10-13T04:18:57.826Z,4.28
2022-10-13T04:21:25.051Z,4.65
2022-10-13T04:23:53.934Z,4.50
2022-10-13T04:26:22.044Z,4.00
2022-10-13T04:28:49.823Z,4.53
2022-10-13T04:31:16.974Z,5.70
2022-10-13T04:33:44.461Z,6.07
2022-10-13T04:36:12.200Z,5.20
2022-10-13T04:38:39.174Z,5.22
2022-10-13T04:41:06.379Z,5.60
2022-10-13T04:43:33.382Z,4.57
2022-10-13T04:46:02.717Z,4.38
2022-10-13T04:48:29.614Z,6.35
2022-10-13T04:51:03.786Z,3.15
2022-10-13T04:53:30.721Z,4.38
2022-10-13T04:56:00.371Z,9.48
2022-10-13T04:58:27.234Z,4.25
2022-10-13T05:00:55.385Z,7.63
2022-10-13T05:03:25.674Z,6.80
2022-10-13T05:05:52.894Z,6.90
2022-10-13T05:08:19.998Z,4.32
2022-10-13T05:11:00.556Z,6.07
2022-10-13T05:13:28.170Z,5.38
2022-10-13T05:18:24.145Z,10.02
2022-10-13T05:20:50.969Z,6.88
2022-10-13T05:23:18.041Z,6.20
2022-10-13T05:25:45.217Z,8.48
2022-10-13T05:30:41.686Z,8.35
2022-10-13T05:33:09.298Z,6.18
2022-10-13T05:35:36.140Z,9.85
2022-10-13T05:38:03.077Z,8.23
2022-10-13T05:40:30.259Z,6.95
2022-10-13T05:43:00.638Z,10.40
2022-10-13T05:45:28.241Z,8.05
2022-10-13T05:47:55.201Z,8.35
2022-10-13T05:50:22.171Z,8.32
2022-10-13T05:52:49.068Z,10.50
2022-10-13T05:55:16.186Z,9.25
2022-10-13T05:57:45.313Z,9.55
2022-10-13T06:00:14.723Z,10.43
2022-10-13T06:02:45.610Z,9.35
2022-10-13T06:05:16.793Z,9.82
2022-10-13T06:07:44.188Z,9.65
2022-10-13T06:10:11.699Z,9.38
2022-10-13T06:12:38.793Z,13.90
2022-10-13T06:15:06.009Z,8.43
2022-10-13T06:17:35.566Z,10.77
2022-10-13T06:20:02.479Z,11.07
2022-10-13T06:22:29.325Z,11.50
2022-10-13T06:24:56.227Z,9.73
2022-10-13T06:27:23.063Z,9.50
2022-10-13T06:29:53.620Z,10.52
2022-10-13T06:32:20.932Z,9.63
2022-10-13T06:34:47.989Z,11.05
2022-10-13T06:37:14.895Z,13.00
2022-10-13T06:39:42.165Z,9.32
2022-10-13T06:42:09.107Z,8.32
2022-10-13T06:44:38.873Z,10.63
2022-10-13T06:47:05.801Z,7.05
2022-10-13T06:49:33.023Z,9.73
2022-10-13T06:52:00.061Z,12.63
2022-10-13T06:54:26.995Z,10.43
2022-10-13T06:56:53.921Z,14.63
2022-10-13T06:59:21.394Z,9.95
2022-10-13T07:01:49.020Z,16.92
2022-10-13T07:04:16.842Z,10.10
2022-10-13T07:06:43.866Z,9.27
2022-10-13T07:09:10.780Z,9.20
2022-10-13T07:11:38.791Z,11.25
2022-10-13T07:14:05.695Z,14.02
2022-10-13T07:16:32.593Z,10.23
2022-10-13T07:18:59.449Z,11.88
2022-10-13T07:21:26.502Z,9.40
2022-10-13T07:23:53.503Z,10.82
2022-10-13T07:26:20.661Z,14.45
2022-10-13T07:28:47.603Z,9.77
2022-10-13T07:31:19.266Z,13.45
2022-10-13T07:33:48.114Z,13.52
2022-10-13T07:36:16.712Z,10.85
2022-10-13T07:38:43.796Z,9.10
2022-10-13T07:41:10.959Z,9.00
2022-10-13T07:43:37.920Z,11.88
2022-10-13T07:46:05.131Z,10.70
2022-10-13T07:48:32.130Z,11.90
2022-10-13T07:51:06.700Z,9.57
2022-10-13T07:53:35.439Z,12.55
2022-10-13T07:56:03.081Z,10.70
2022-10-13T07:58:30.032Z,15.43
2022-10-13T08:00:59.341Z,19.00
2022-10-13T08:03:27.154Z,11.60
2022-10-13T08:05:54.166Z,17.55
2022-10-13T08:08:21.363Z,16.40
2022-10-13T08:10:48.376Z,13.35
2022-10-13T08:13:15.393Z,13.90
2022-10-13T08:15:43.091Z,10.95
2022-10-13T08:18:10.950Z,15.20
2022-10-13T08:20:43.889Z,12.60
2022-10-13T08:23:11.955Z,18.10
2022-10-13T08:25:42.778Z,10.60
2022-10-13T08:28:23.271Z,10.25
2022-10-13T08:30:51.955Z,10.00
2022-10-13T08:33:19.187Z,9.25
2022-10-13T08:35:46.063Z,6.85
2022-10-13T08:38:13.400Z,9.52
2022-10-13T08:40:40.543Z,7.55
2022-10-13T08:43:08.346Z,9.23
2022-10-13T08:45:41.360Z,9.63
2022-10-13T08:48:30.450Z,7.90
2022-10-13T08:51:00.116Z,6.78
2022-10-13T08:56:22.003Z,6.57
2022-10-13T08:58:50.091Z,7.38
2022-10-13T09:01:24.812Z,7.80
2022-10-13T09:03:57.175Z,8.80
2022-10-13T09:06:36.687Z,7.68
2022-10-13T09:09:08.671Z,5.57
2022-10-13T09:11:37.773Z,6.00
2022-10-13T09:14:27.342Z,5.47
2022-10-13T09:16:55.187Z,6.35
2022-10-13T09:19:26.327Z,6.55
2022-10-13T09:21:58.485Z,7.43
2022-10-13T09:24:26.509Z,4.80
2022-10-13T09:27:05.930Z,5.90
2022-10-13T09:29:34.679Z,8.63
2022-10-13T09:32:27.995Z,6.93
2022-10-13T09:34:55.611Z,4.80
2022-10-13T09:37:24.086Z,3.92
2022-10-13T09:40:14.199Z,5.32
2022-10-13T09:42:41.217Z,6.28
2022-10-13T09:45:16.949Z,4.88
2022-10-13T09:47:53.566Z,4.55
2022-10-13T09:50:23.294Z,5.72
2022-10-13T09:52:50.575Z,6.47
2022-10-13T09:55:32.867Z,4.30
2022-10-13T09:58:22.621Z,6.45
2022-10-13T10:00:49.987Z,3.67
2022-10-13T10:03:32.744Z,8.55
2022-10-13T10:06:04.296Z,6.38
2022-10-13T10:09:07.629Z,5.65
2022-10-13T10:11:38.527Z,4.88
2022-10-13T10:14:23.889Z,5.28
2022-10-13T10:16:59.149Z,6.03
2022-10-13T10:19:45.913Z,5.65
2022-10-13T10:22:45.997Z,3.30
2022-10-13T10:25:30.010Z,4.45
2022-10-13T10:28:14.986Z,4.93
2022-10-13T10:30:46.740Z,4.28
2022-10-13T10:33:20.455Z,4.63
2022-10-13T10:35:49.411Z,7.30
2022-10-13T10:38:47.145Z,4.72
2022-10-13T10:41:25.059Z,5.53
2022-10-13T10:44:11.175Z,3.42
2022-10-13T10:46:50.295Z,2.70
2022-10-13T10:49:18.730Z,4.07
2022-10-13T10:51:45.739Z,3.28
2022-10-13T10:54:21.654Z,3.08
2022-10-13T10:56:56.145Z,5.28
2022-10-13T11:00:00.592Z,3.63
2022-10-13T11:02:52.796Z,3.45
2022-10-13T11:05:19.784Z,9.27
2022-10-13T11:07:46.729Z,9.52
2022-10-13T11:10:13.661Z,9.50
2022-10-13T11:12:47.618Z,10.45
2022-10-13T11:15:24.803Z,13.13
2022-10-13T11:17:52.489Z,11.65
2022-10-13T11:20:22.474Z,14.93
2022-10-13T11:23:01.522Z,8.80
2022-10-13T11:25:47.363Z,12.05
2022-10-13T11:28:23.636Z,9.57
2022-10-13T11:30:55.499Z,10.40
2022-10-13T11:33:40.636Z,10.18
2022-10-13T11:36:29.333Z,11.20
2022-10-13T11:39:13.547Z,14.52
2022-10-13T11:41:46.542Z,7.80
2022-10-13T11:44:21.140Z,10.73
2022-10-13T11:47:33.142Z,8.60
2022-10-13T11:50:27.321Z,10.68
2022-10-13T11:53:05.925Z,12.82
2022-10-13T11:55:52.774Z,9.35
2022-10-13T11:58:33.170Z,9.45
2022-10-13T12:01:00.226Z,9.20
2022-10-13T12:03:32.544Z,5.90
2022-10-13T12:06:04.734Z,8.07
2022-10-13T12:08:34.359Z,7.15
2022-10-13T12:11:03.180Z,7.68
2022-10-13T12:13:31.229Z,6.23
2022-10-13T12:16:06.613Z,7.90
2022-10-13T12:18:38.401Z,6.78
2022-10-13T12:21:14.307Z,6.32
2022-10-13T12:23:41.251Z,5.63
2022-10-13T12:26:08.333Z,4.78
2022-10-13T12:28:51.407Z,6.85
2022-10-13T12:31:23.067Z,8.55
2022-10-13T12:33:57.990Z,7.03
2022-10-13T12:36:32.680Z,5.00
2022-10-13T12:39:02.501Z,5.07
2022-10-13T12:44:01.071Z,5.28
2022-10-13T12:46:48.130Z,6.68
2022-10-13T12:49:22.936Z,4.28
2022-10-13T12:51:52.885Z,3.95
2022-10-13T12:54:26.113Z,4.85
2022-10-13T12:56:56.509Z,6.47
2022-10-13T12:59:23.891Z,6.15
2022-10-13T13:02:01.579Z,5.22
2022-10-13T13:04:40.223Z,5.30
2022-10-13T13:07:27.823Z,5.47
2022-10-13T13:10:07.768Z,8.32
2022-10-13T13:12:35.781Z,4.65
2022-10-13T13:15:33.175Z,4.82
2022-10-13T13:18:39.623Z,4.75
2022-10-13T13:21:07.643Z,6.07
2022-10-13T13:23:35.687Z,6.13
2022-10-13T13:26:07.347Z,4.28
2022-10-13T13:28:34.336Z,3.55
2022-10-13T13:31:03.558Z,3.40
2022-10-13T13:33:30.510Z,4.45
2022-10-13T13:35:58.791Z,5.00
2022-10-13T13:38:25.716Z,3.58
2022-10-13T13:40:52.576Z,6.13
2022-10-13T13:43:19.506Z,3.90
2022-10-13T13:45:46.482Z,3.40
2022-10-13T13:48:13.362Z,4.45
2022-10-13T13:50:40.501Z,6.13
2022-10-13T13:53:07.463Z,3.38
2022-10-13T13:55:34.311Z,6.20
2022-10-13T13:58:01.418Z,3.53
2022-10-13T14:00:28.307Z,4.47
2022-10-13T14:02:56.573Z,5.72
2022-10-13T14:05:23.790Z,4.28
2022-10-13T14:07:53.626Z,5.53
2022-10-13T14:10:20.524Z,5.53
2022-10-13T14:12:47.486Z,4.07
2022-10-13T14:15:14.337Z,5.47
2022-10-13T14:17:41.204Z,3.67
2022-10-13T14:20:08.531Z,5.78
2022-10-13T14:22:38.754Z,5.63
2022-10-13T14:25:06.519Z,6.82
2022-10-13T14:27:34.696Z,4.38
2022-10-13T14:30:02.493Z,5.30
2022-10-13T14:32:29.537Z,4.05
2022-10-13T14:34:56.427Z,5.20
2022-10-13T14:37:25.078Z,5.40
2022-10-13T14:39:54.736Z,5.63
2022-10-13T14:42:21.809Z,6.65
2022-10-13T14:44:48.695Z,6.82
2022-10-13T14:47:15.647Z,4.80
2022-10-13T14:49:42.533Z,4.00
2022-10-13T14:52:10.051Z,4.22
2022-10-13T14:54:40.066Z,4.13
2022-10-13T14:57:15.571Z,4.65
2022-10-13T14:59:42.767Z,4.53
2022-10-13T15:02:11.134Z,4.15
2022-10-13T15:04:38.075Z,8.70
2022-10-13T15:07:04.986Z,4.03
2022-10-13T15:09:45.417Z,3.35
2022-10-13T15:12:20.643Z,4.55
2022-10-13T15:14:47.871Z,3.88
2022-10-13T15:17:14.725Z,4.93
2022-10-13T15:19:41.601Z,14.05
2022-10-13T15:22:09.044Z,7.50
2022-10-13T15:24:35.914Z,3.75
2022-10-13T15:27:02.829Z,4.45
2022-10-13T15:29:29.860Z,6.05
2022-10-13T15:32:10.616Z,3.28
2022-10-13T15:34:40.667Z,4.78
2022-10-13T15:37:07.829Z,3.38
2022-10-13T15:39:34.762Z,4.07
2022-10-13T15:42:01.949Z,3.03
2022-10-13T15:44:30.897Z,2.75
2022-10-13T15:47:07.943Z,2.45
2022-10-13T15:49:37.674Z,2.95
2022-10-13T15:52:05.523Z,3.80
2022-10-13T15:54:32.616Z,3.45
2022-10-13T15:57:00.024Z,5.60
2022-10-13T15:59:26.880Z,2.78
2022-10-13T16:01:53.763Z,7.07
2022-10-13T16:04:20.661Z,4.22
2022-10-13T16:06:47.516Z,5.28
2022-10-13T16:09:14.375Z,4.43
2022-10-13T16:11:41.807Z,4.93
2022-10-13T16:14:09.083Z,3.20
2022-10-13T16:16:36.063Z,4.57
2022-10-13T16:19:02.981Z,3.90
2022-10-13T16:21:29.905Z,3.15
2022-10-13T16:23:56.902Z,3.97
2022-10-13T16:26:23.778Z,4.32
2022-10-13T16:28:56.156Z,3.58
2022-10-13T16:31:23.779Z,2.92
2022-10-13T16:33:50.653Z,3.10
2022-10-13T16:36:18.448Z,3.13
2022-10-13T16:38:46.070Z,4.13
2022-10-13T16:41:17.473Z,4.88
2022-10-13T16:43:45.114Z,5.35
2022-10-13T16:46:13.513Z,5.75
2022-10-13T16:48:41.027Z,3.67
2022-10-13T16:51:09.753Z,4.93
2022-10-13T16:53:36.767Z,4.82
2022-10-13T16:56:04.683Z,5.85
2022-10-13T16:58:31.771Z,4.05
2022-10-13T17:01:06.214Z,4.70
2022-10-13T17:03:33.168Z,4.05
2022-10-13T17:06:00.088Z,5.07
2022-10-13T17:08:27.029Z,4.03
2022-10-13T17:10:58.004Z,5.78
2022-10-13T17:13:25.387Z,4.75
2022-10-13T17:15:52.818Z,4.38
2022-10-13T17:18:19.826Z,8.73
2022-10-13T17:20:57.869Z,5.13
2022-10-13T17:23:25.074Z,6.75
2022-10-13T17:25:52.506Z,5.88
2022-10-13T17:28:19.614Z,4.55
2022-10-13T17:30:55.835Z,7.63
2022-10-13T17:33:22.773Z,4.82
2022-10-13T17:35:49.631Z,3.83
2022-10-13T17:38:16.547Z,6.07
2022-10-13T17:40:43.399Z,3.75
2022-10-13T17:43:10.274Z,6.45
2022-10-13T17:45:37.203Z,7.63
2022-10-13T17:48:04.146Z,4.07
2022-10-13T17:50:36.174Z,7.93
2022-10-13T17:53:03.165Z,4.75
2022-10-13T17:55:33.102Z,4.95
2022-10-13T17:58:00.113Z,4.47
2022-10-13T18:00:27.011Z,6.85
2022-10-13T18:02:54.802Z,4.22
2022-10-13T18:05:21.801Z,7.00
2022-10-13T18:07:48.746Z,5.55
2022-10-13T18:10:17.672Z,4.20
2022-10-13T18:12:44.530Z,5.53
2022-10-13T18:15:11.472Z,6.85
2022-10-13T18:17:38.379Z,8.27
2022-10-13T18:20:05.715Z,10.02
2022-10-13T18:22:34.037Z,8.82
2022-10-13T18:25:02.538Z,7.45
2022-10-13T18:27:29.436Z,13.45
2022-10-13T18:29:56.405Z,10.50
2022-10-13T18:32:23.279Z,6.90
2022-10-13T18:34:50.461Z,9.18
2022-10-13T18:37:17.453Z,8.18
2022-10-13T18:39:44.923Z,6.68
2022-10-13T18:42:11.802Z,6.68
2022-10-13T18:44:38.916Z,10.00
2022-10-13T18:47:07.006Z,9.45
2022-10-13T18:49:33.927Z,11.93
2022-10-13T18:52:01.124Z,7.85
2022-10-13T18:54:28.296Z,10.50
2022-10-13T18:56:55.226Z,11.82
2022-10-13T18:59:22.131Z,8.98
2022-10-13T19:01:49.462Z,7.53
2022-10-13T19:04:16.980Z,8.93
2022-10-13T19:06:44.039Z,8.10
2022-10-13T19:09:12.714Z,11.00
2022-10-13T19:11:39.770Z,7.75
2022-10-13T19:14:08.785Z,7.97
2022-10-13T19:16:37.562Z,11.17
2022-10-13T19:19:04.718Z,9.40
2022-10-13T19:21:32.749Z,9.63
2022-10-13T19:23:59.778Z,9.43
2022-10-13T19:26:28.434Z,8.10
2022-10-13T19:28:56.431Z,7.88
2022-10-13T19:31:24.345Z,9.07
2022-10-13T19:33:52.587Z,9.45
2022-10-13T19:36:37.529Z,10.55
2022-10-13T19:39:06.667Z,6.38
2022-10-13T19:41:33.983Z,9.83
2022-10-13T19:44:01.069Z,8.30
2022-10-13T19:46:38.375Z,7.82
2022-10-13T19:49:05.377Z,10.23
2022-10-13T19:51:33.560Z,7.80
2022-10-13T19:54:00.717Z,7.55
2022-10-13T19:56:31.428Z,7.75
2022-10-13T19:58:58.515Z,7.70
2022-10-13T20:01:25.370Z,7.43
2022-10-13T20:03:52.330Z,8.98
2022-10-13T20:06:19.705Z,5.78
2022-10-13T20:08:46.666Z,6.03
2022-10-13T20:11:19.349Z,6.57
2022-10-13T20:13:49.317Z,5.78
2022-10-13T20:16:17.504Z,5.78
2022-10-13T20:18:44.554Z,9.23
2022-10-13T20:21:12.197Z,11.48
2022-10-13T20:23:40.668Z,7.65
2022-10-13T20:26:09.923Z,8.70
2022-10-13T20:28:42.690Z,9.93
2022-10-13T20:31:12.839Z,8.80
2022-10-13T20:33:39.970Z,8.83
2022-10-13T20:36:08.842Z,9.32
2022-10-13T20:38:36.198Z,6.22
2022-10-13T20:41:24.899Z,7.25
2022-10-13T20:43:53.333Z,10.07
2022-10-13T20:46:20.604Z,7.80
2022-10-13T20:51:34.959Z,7.50
2022-10-13T20:54:01.854Z,8.73
2022-10-13T20:56:28.782Z,8.73
2022-10-13T20:58:55.724Z,7.68
2022-10-13T21:01:22.962Z,8.25
2022-10-13T21:03:55.808Z,6.55
2022-10-13T21:06:23.244Z,8.60
2022-10-13T21:08:50.097Z,9.40
2022-10-13T21:11:17.982Z,10.30
2022-10-13T21:13:45.148Z,9.15
2022-10-13T21:16:13.888Z,6.90
2022-10-13T21:18:43.422Z,10.65
2022-10-13T21:21:10.670Z,10.07
2022-10-13T21:23:39.595Z,8.90
2022-10-13T21:26:07.970Z,6.05
2022-10-13T21:28:36.659Z,7.25
2022-10-13T21:31:08.168Z,12.10
2022-10-13T21:33:36.143Z,7.32
2022-10-13T21:36:14.430Z,6.50
2022-10-13T21:38:42.037Z,10.25
2022-10-13T21:41:09.679Z,6.88
2022-10-13T21:43:36.777Z,7.05
2022-10-13T21:46:11.482Z,8.48
2022-10-13T21:48:42.963Z,9.65
2022-10-13T21:51:17.167Z,8.40
2022-10-13T21:53:44.268Z,8.77
2022-10-13T21:56:11.894Z,9.52
2022-10-13T21:58:39.010Z,7.18
2022-10-13T22:01:06.091Z,8.88
2022-10-13T22:03:33.569Z,7.82
2022-10-13T22:06:05.238Z,9.07
2022-10-13T22:08:38.260Z,5.93
2022-10-13T22:11:14.051Z,10.90
2022-10-13T22:13:40.918Z,8.10
2022-10-13T22:16:31.188Z,13.48
2022-10-13T22:18:58.179Z,6.50
2022-10-13T22:21:33.675Z,7.95
2022-10-13T22:24:04.873Z,9.70
2022-10-13T22:26:33.488Z,9.57
2022-10-13T22:29:01.025Z,8.75
2022-10-13T22:31:28.349Z,9.98
2022-10-13T22:33:55.217Z,9.85
2022-10-13T22:36:22.970Z,9.60
2022-10-13T22:38:50.307Z,9.15
2022-10-13T22:41:17.757Z,8.60
2022-10-13T22:43:50.382Z,7.15
2022-10-13T22:46:18.839Z,7.70
2022-10-13T22:48:45.824Z,12.77
2022-10-13T22:51:18.490Z,8.13
2022-10-13T22:53:45.475Z,6.78
2022-10-13T22:56:14.411Z,7.28
2022-10-13T22:58:41.460Z,13.88
2022-10-13T23:01:13.014Z,7.18
2022-10-13T23:03:40.343Z,9.27
2022-10-13T23:06:08.159Z,6.07
2022-10-13T23:08:35.375Z,8.02
2022-10-13T23:11:02.226Z,8.90
2022-10-13T23:13:29.164Z,6.80
2022-10-13T23:16:11.507Z,9.00
2022-10-13T23:18:42.033Z,8.88
2022-10-13T23:21:18.299Z,8.18
2022-10-13T23:23:45.350Z,7.28
2022-10-13T23:26:13.728Z,7.95
2022-10-13T23:28:40.950Z,8.35
2022-10-13T23:31:10.552Z,8.68
2022-10-13T23:33:37.526Z,9.82
2022-10-13T23:36:04.700Z,7.38
2022-10-13T23:38:31.822Z,8.52
2022-10-13T23:41:03.610Z,6.85
2022-10-13T23:43:30.572Z,6.82
2022-10-13T23:45:57.478Z,7.53
2022-10-13T23:48:24.382Z,5.65
2022-10-13T23:50:51.250Z,8.80
2022-10-13T23:53:18.706Z,7.93
2022-10-13T23:55:45.631Z,7.20
2022-10-13T23:58:13.044Z,9.77
